Hauptseite
METAR-TAF:

METAR-TAF

Flughäfen :

Kosrae, Mikronesien

Flughafen Kosrae

Breite: 05-21N, Länge: 162-57E, Höhe: 3 m

Beobachtung

Neuester Wetterbericht von vor 7 Stunden und 7 Minuten, um 02:50 UTC
Wind 14 kt aus Ost/Nordost
Temperatur 28°C
Luftfeuchtigkeit 84%
Luftdruck 1007 hPa
Sichtweite: 16.1 km
Durchbrochene Bewölkung in der Höhe von 1400 ft
Durchbrochene Bewölkung in der Höhe von 13000 ft
Geschlossene Wolkendecke in der Höhe von 30000 ft

METAR: PTSA 250250Z 06014KT 10SM BKN014 BKN130 OVC300 28/25 A2974

Zeit: 20:57 (09:57 UTC)

Prognose

Neuester Wetterbericht von vor 10 Stunden und 25 Minuten, um 23:32 UTC
Gültige Prognose vom 25 um 00 UTC bis 25 um 24 UTC
Wind 15 kt aus Nordost
Sichtweite: 10 km
Aufgelockert bewölkt in der Höhe von 1700 ft
Durchbrochene Bewölkung in der Höhe von 13000 ft
Schauer in der Nähe

TAF: PTSA 242332Z 2500/2524 04015KT P6SM VCSH SCT017 BKN130

Wetterbeobachtungen und Prognosen von mehr als 4000 Flughäfen (METAR und TAF Bericht).

Die verfügbaren Stationen werden durch gelbe und rote Markierungen auf der Karte dargestellt.

Führen Sie die Maus auf sie, um den Namen der Station zu sehen.

Darauf klicken, um die Beobachtung von Wetterbeobachtungen und Prognosen zu sehen.

Um die Karte zu ändern : klicken Sie auf den grünen Tasten mit einem schwarzen Kreuz Zum Vergrößern, auf den grünen Button mit einem Gedankenstrich zu verkleinern, oder auf die grünen Pfeile für benachbarte Karten.


METAR-TAF: